sensor_id;sensor_type;location;lat;lon;timestamp;pressure;altitude;pressure_sealevel;temperature;humidity
37710;BME280;60223;34.854;-92.408;2023-05-03T00:01:01;100067.64;;;26.35;18.26
37710;BME280;60223;34.854;-92.408;2023-05-03T00:03:27;100065.58;;;26.62;18.40
37710;BME280;60223;34.854;-92.408;2023-05-03T00:05:52;100064.15;;;26.35;18.62
37710;BME280;60223;34.854;-92.408;2023-05-03T00:08:18;100064.77;;;26.42;18.71
37710;BME280;60223;34.854;-92.408;2023-05-03T00:10:43;100066.46;;;26.19;18.25
37710;BME280;60223;34.854;-92.408;2023-05-03T00:13:10;100067.04;;;27.19;17.82
37710;BME280;60223;34.854;-92.408;2023-05-03T00:15:34;100068.04;;;26.83;18.75
37710;BME280;60223;34.854;-92.408;2023-05-03T00:18:01;100064.15;;;27.20;18.45
37710;BME280;60223;34.854;-92.408;2023-05-03T00:20:27;100065.49;;;27.68;18.23
37710;BME280;60223;34.854;-92.408;2023-05-03T00:22:49;100073.93;;;26.09;19.08
37710;BME280;60223;34.854;-92.408;2023-05-03T00:25:16;100072.89;;;26.30;18.95
37710;BME280;60223;34.854;-92.408;2023-05-03T00:27:43;100077.00;;;26.15;19.19
37710;BME280;60223;34.854;-92.408;2023-05-03T00:30:09;100078.86;;;26.15;19.22
37710;BME280;60223;34.854;-92.408;2023-05-03T00:32:35;100078.88;;;25.74;19.24
37710;BME280;60223;34.854;-92.408;2023-05-03T00:34:59;100076.12;;;25.72;19.65
37710;BME280;60223;34.854;-92.408;2023-05-03T00:37:26;100078.64;;;26.30;19.46
37710;BME280;60223;34.854;-92.408;2023-05-03T00:39:52;100081.58;;;25.48;19.60
37710;BME280;60223;34.854;-92.408;2023-05-03T00:42:17;100081.94;;;26.01;19.43
37710;BME280;60223;34.854;-92.408;2023-05-03T00:44:43;100084.03;;;26.04;19.85
37710;BME280;60223;34.854;-92.408;2023-05-03T00:47:08;100087.97;;;25.51;20.11
37710;BME280;60223;34.854;-92.408;2023-05-03T00:49:34;100089.96;;;25.66;20.40
37710;BME280;60223;34.854;-92.408;2023-05-03T00:52:00;100092.77;;;26.31;19.91
37710;BME280;60223;34.854;-92.408;2023-05-03T00:54:25;100092.32;;;26.49;20.08
37710;BME280;60223;34.854;-92.408;2023-05-03T00:56:51;100092.31;;;25.98;20.28
37710;BME280;60223;34.854;-92.408;2023-05-03T00:59:16;100087.03;;;25.30;20.64
37710;BME280;60223;34.854;-92.408;2023-05-03T01:01:41;100089.99;;;25.75;20.82
37710;BME280;60223;34.854;-92.408;2023-05-03T01:04:06;100085.70;;;25.21;21.80
37710;BME280;60223;34.854;-92.408;2023-05-03T01:06:38;100094.98;;;25.45;21.81
37710;BME280;60223;34.854;-92.408;2023-05-03T01:09:01;100096.06;;;25.71;22.20
37710;BME280;60223;34.854;-92.408;2023-05-03T01:11:29;100099.92;;;25.87;21.87
37710;BME280;60223;34.854;-92.408;2023-05-03T01:13:55;100100.75;;;25.03;22.62
37710;BME280;60223;34.854;-92.408;2023-05-03T01:16:20;100106.04;;;26.32;21.66
37710;BME280;60223;34.854;-92.408;2023-05-03T01:18:41;100106.11;;;27.02;21.37
37710;BME280;60223;34.854;-92.408;2023-05-03T01:21:07;100108.56;;;25.29;22.66
37710;BME280;60223;34.854;-92.408;2023-05-03T01:23:39;100111.77;;;25.68;22.24
37710;BME280;60223;34.854;-92.408;2023-05-03T01:25:56;100114.32;;;25.83;22.38
37710;BME280;60223;34.854;-92.408;2023-05-03T01:28:24;100110.27;;;25.58;22.70
37710;BME280;60223;34.854;-92.408;2023-05-03T01:30:51;100114.45;;;25.39;22.54
37710;BME280;60223;34.854;-92.408;2023-05-03T01:33:19;100118.33;;;25.74;22.52
37710;BME280;60223;34.854;-92.408;2023-05-03T01:35:43;100117.42;;;25.46;23.03
37710;BME280;60223;34.854;-92.408;2023-05-03T01:38:04;100116.33;;;25.73;23.02
37710;BME280;60223;34.854;-92.408;2023-05-03T01:40:33;100114.78;;;25.03;23.22
37710;BME280;60223;34.854;-92.408;2023-05-03T01:42:58;100118.93;;;25.18;23.14
37710;BME280;60223;34.854;-92.408;2023-05-03T01:45:23;100122.78;;;25.55;22.93
37710;BME280;60223;34.854;-92.408;2023-05-03T01:47:48;100129.27;;;26.29;22.37
37710;BME280;60223;34.854;-92.408;2023-05-03T01:50:14;100132.90;;;25.76;22.86
37710;BME280;60223;34.854;-92.408;2023-05-03T01:52:40;100134.22;;;25.85;23.00
37710;BME280;60223;34.854;-92.408;2023-05-03T01:55:04;100135.14;;;25.38;23.22
37710;BME280;60223;34.854;-92.408;2023-05-03T01:57:31;100140.86;;;25.70;22.97
37710;BME280;60223;34.854;-92.408;2023-05-03T01:59:57;100146.13;;;25.24;23.40
37710;BME280;60223;34.854;-92.408;2023-05-03T02:02:22;100153.75;;;25.18;23.55
37710;BME280;60223;34.854;-92.408;2023-05-03T02:04:46;100160.12;;;25.20;23.51
37710;BME280;60223;34.854;-92.408;2023-05-03T02:07:14;100162.54;;;25.47;23.56
37710;BME280;60223;34.854;-92.408;2023-05-03T02:09:39;100166.44;;;25.38;23.47
37710;BME280;60223;34.854;-92.408;2023-05-03T02:12:05;100168.38;;;25.24;23.63
37710;BME280;60223;34.854;-92.408;2023-05-03T02:14:29;100174.46;;;25.61;23.50
37710;BME280;60223;34.854;-92.408;2023-05-03T02:16:55;100183.18;;;26.08;22.82
37710;BME280;60223;34.854;-92.408;2023-05-03T02:19:22;100180.33;;;25.59;23.38
37710;BME280;60223;34.854;-92.408;2023-05-03T02:21:46;100185.71;;;25.22;23.76
37710;BME280;60223;34.854;-92.408;2023-05-03T02:24:12;100186.59;;;25.29;23.77
37710;BME280;60223;34.854;-92.408;2023-05-03T02:26:38;100190.92;;;25.29;23.79
37710;BME280;60223;34.854;-92.408;2023-05-03T02:29:04;100192.69;;;25.28;23.85
37710;BME280;60223;34.854;-92.408;2023-05-03T02:31:28;100194.84;;;25.49;23.89
37710;BME280;60223;34.854;-92.408;2023-05-03T02:33:56;100201.10;;;25.45;23.76
37710;BME280;60223;34.854;-92.408;2023-05-03T02:36:21;100205.58;;;25.44;23.83
37710;BME280;60223;34.854;-92.408;2023-05-03T02:38:47;100211.62;;;25.64;23.83
37710;BME280;60223;34.854;-92.408;2023-05-03T02:41:11;100217.42;;;25.41;23.87
37710;BME280;60223;34.854;-92.408;2023-05-03T02:43:34;100221.50;;;25.27;24.03
37710;BME280;60223;34.854;-92.408;2023-05-03T02:46:04;100226.76;;;25.68;23.87
37710;BME280;60223;34.854;-92.408;2023-05-03T02:48:30;100231.33;;;25.65;23.74
37710;BME280;60223;34.854;-92.408;2023-05-03T02:50:53;100237.64;;;25.65;23.76
37710;BME280;60223;34.854;-92.408;2023-05-03T02:53:21;100243.00;;;24.99;24.18
37710;BME280;60223;34.854;-92.408;2023-05-03T02:55:46;100244.08;;;25.31;24.14
37710;BME280;60223;34.854;-92.408;2023-05-03T02:58:12;100244.98;;;25.29;24.16
37710;BME280;60223;34.854;-92.408;2023-05-03T03:00:36;100248.02;;;25.31;24.19
37710;BME280;60223;34.854;-92.408;2023-05-03T03:03:02;100256.10;;;25.72;24.05
37710;BME280;60223;34.854;-92.408;2023-05-03T03:05:29;100260.74;;;25.26;24.28
37710;BME280;60223;34.854;-92.408;2023-05-03T03:07:54;100261.01;;;25.28;24.26
37710;BME280;60223;34.854;-92.408;2023-05-03T03:10:19;100265.66;;;25.42;24.18
37710;BME280;60223;34.854;-92.408;2023-05-03T03:12:45;100265.57;;;25.41;24.21
37710;BME280;60223;34.854;-92.408;2023-05-03T03:15:12;100268.95;;;25.44;24.19
37710;BME280;60223;34.854;-92.408;2023-05-03T03:17:37;100273.63;;;25.72;23.97
37710;BME280;60223;34.854;-92.408;2023-05-03T03:20:02;100278.68;;;26.10;23.94
37710;BME280;60223;34.854;-92.408;2023-05-03T03:22:28;100280.68;;;25.97;23.86
37710;BME280;60223;34.854;-92.408;2023-05-03T03:24:54;100283.25;;;26.06;24.03
37710;BME280;60223;34.854;-92.408;2023-05-03T03:27:19;100285.03;;;25.69;24.11
37710;BME280;60223;34.854;-92.408;2023-05-03T03:29:45;100284.15;;;25.51;24.24
37710;BME280;60223;34.854;-92.408;2023-05-03T03:32:10;100284.87;;;25.51;24.28
37710;BME280;60223;34.854;-92.408;2023-05-03T03:34:36;100288.37;;;25.51;24.25
37710;BME280;60223;34.854;-92.408;2023-05-03T03:37:00;100293.37;;;26.56;23.44
37710;BME280;60223;34.854;-92.408;2023-05-03T03:39:28;100295.22;;;26.27;23.86
37710;BME280;60223;34.854;-92.408;2023-05-03T03:41:53;100295.49;;;25.77;24.10
37710;BME280;60223;34.854;-92.408;2023-05-03T03:44:18;100297.52;;;25.58;24.23
37710;BME280;60223;34.854;-92.408;2023-05-03T03:46:44;100298.10;;;25.54;24.30
37710;BME280;60223;34.854;-92.408;2023-05-03T03:49:08;100301.20;;;25.71;24.16
37710;BME280;60223;34.854;-92.408;2023-05-03T03:51:35;100306.23;;;25.73;24.17
37710;BME280;60223;34.854;-92.408;2023-05-03T03:54:01;100308.01;;;25.61;24.30
37710;BME280;60223;34.854;-92.408;2023-05-03T03:56:27;100311.48;;;25.59;24.34
37710;BME280;60223;34.854;-92.408;2023-05-03T03:58:51;100310.11;;;25.52;24.43
37710;BME280;60223;34.854;-92.408;2023-05-03T04:01:17;100312.96;;;25.29;24.65
37710;BME280;60223;34.854;-92.408;2023-05-03T04:03:44;100310.68;;;25.63;24.37
37710;BME280;60223;34.854;-92.408;2023-05-03T04:06:07;100313.16;;;25.78;24.25
37710;BME280;60223;34.854;-92.408;2023-05-03T04:08:34;100315.49;;;25.95;24.09
37710;BME280;60223;34.854;-92.408;2023-05-03T04:11:01;100314.35;;;25.66;24.35
37710;BME280;60223;34.854;-92.408;2023-05-03T04:13:27;100314.86;;;25.74;24.26
37710;BME280;60223;34.854;-92.408;2023-05-03T04:15:53;100314.64;;;25.86;24.21
37710;BME280;60223;34.854;-92.408;2023-05-03T04:18:17;100316.85;;;25.74;24.32
37710;BME280;60223;34.854;-92.408;2023-05-03T04:20:43;100315.82;;;25.58;24.49
37710;BME280;60223;34.854;-92.408;2023-05-03T04:23:09;100321.09;;;25.51;24.53
37710;BME280;60223;34.854;-92.408;2023-05-03T04:25:34;100321.62;;;25.28;24.75
37710;BME280;60223;34.854;-92.408;2023-05-03T04:27:58;100322.36;;;25.41;24.79
37710;BME280;60223;34.854;-92.408;2023-05-03T04:30:26;100325.29;;;25.15;24.81
37710;BME280;60223;34.854;-92.408;2023-05-03T04:32:51;100327.86;;;24.89;25.04
37710;BME280;60223;34.854;-92.408;2023-05-03T04:35:17;100332.56;;;25.07;24.91
37710;BME280;60223;34.854;-92.408;2023-05-03T04:37:42;100334.20;;;25.42;25.03
37710;BME280;60223;34.854;-92.408;2023-05-03T04:40:09;100338.14;;;24.99;24.97
37710;BME280;60223;34.854;-92.408;2023-05-03T04:42:34;100339.77;;;25.37;25.06
37710;BME280;60223;34.854;-92.408;2023-05-03T04:45:00;100342.59;;;25.18;24.81
37710;BME280;60223;34.854;-92.408;2023-05-03T04:47:24;100346.33;;;25.24;24.77
37710;BME280;60223;34.854;-92.408;2023-05-03T04:49:50;100343.83;;;25.21;24.91
37710;BME280;60223;34.854;-92.408;2023-05-03T04:52:17;100343.11;;;25.21;24.90
37710;BME280;60223;34.854;-92.408;2023-05-03T04:54:42;100340.00;;;25.26;24.89
37710;BME280;60223;34.854;-92.408;2023-05-03T04:57:08;100338.82;;;25.35;24.74
37710;BME280;60223;34.854;-92.408;2023-05-03T04:59:33;100339.93;;;25.53;24.75
37710;BME280;60223;34.854;-92.408;2023-05-03T05:01:58;100343.96;;;25.30;24.68
37710;BME280;60223;34.854;-92.408;2023-05-03T05:04:25;100349.49;;;25.31;24.68
37710;BME280;60223;34.854;-92.408;2023-05-03T05:06:51;100348.90;;;25.25;24.71
37710;BME280;60223;34.854;-92.408;2023-05-03T05:09:21;100352.55;;;25.25;24.69
37710;BME280;60223;34.854;-92.408;2023-05-03T05:11:41;100357.28;;;25.28;24.59
37710;BME280;60223;34.854;-92.408;2023-05-03T05:14:07;100357.82;;;25.37;24.75
37710;BME280;60223;34.854;-92.408;2023-05-03T05:16:32;100364.45;;;25.19;24.69
37710;BME280;60223;34.854;-92.408;2023-05-03T05:18:59;100364.13;;;25.35;24.52
37710;BME280;60223;34.854;-92.408;2023-05-03T05:21:24;100366.25;;;25.78;24.15
37710;BME280;60223;34.854;-92.408;2023-05-03T05:23:50;100366.72;;;25.64;24.25
37710;BME280;60223;34.854;-92.408;2023-05-03T05:26:14;100370.10;;;25.86;24.31
37710;BME280;60223;34.854;-92.408;2023-05-03T05:28:41;100371.98;;;25.33;24.55
37710;BME280;60223;34.854;-92.408;2023-05-03T05:31:07;100377.87;;;25.56;24.53
37710;BME280;60223;34.854;-92.408;2023-05-03T05:33:33;100380.95;;;25.36;24.52
37710;BME280;60223;34.854;-92.408;2023-05-03T05:35:58;100384.04;;;25.31;24.78
37710;BME280;60223;34.854;-92.408;2023-05-03T05:38:24;100388.49;;;25.66;24.45
37710;BME280;60223;34.854;-92.408;2023-05-03T05:40:46;100391.88;;;25.19;24.66
37710;BME280;60223;34.854;-92.408;2023-05-03T05:43:15;100393.64;;;25.47;24.63
37710;BME280;60223;34.854;-92.408;2023-05-03T05:45:41;100396.48;;;25.19;24.63
37710;BME280;60223;34.854;-92.408;2023-05-03T05:48:06;100397.68;;;25.28;24.51
37710;BME280;60223;34.854;-92.408;2023-05-03T05:50:32;100396.79;;;25.21;24.55
37710;BME280;60223;34.854;-92.408;2023-05-03T05:52:57;100398.66;;;25.11;24.62
37710;BME280;60223;34.854;-92.408;2023-05-03T05:55:23;100394.63;;;25.62;24.53
37710;BME280;60223;34.854;-92.408;2023-05-03T05:57:49;100390.17;;;25.12;24.75
37710;BME280;60223;34.854;-92.408;2023-05-03T06:00:14;100391.61;;;24.88;24.72
37710;BME280;60223;34.854;-92.408;2023-05-03T06:02:40;100394.42;;;25.00;24.84
37710;BME280;60223;34.854;-92.408;2023-05-03T06:05:06;100395.25;;;24.85;24.95
37710;BME280;60223;34.854;-92.408;2023-05-03T06:07:32;100393.59;;;24.67;24.86
37710;BME280;60223;34.854;-92.408;2023-05-03T06:09:54;100395.09;;;25.04;24.88
37710;BME280;60223;34.854;-92.408;2023-05-03T06:12:23;100395.99;;;24.70;24.96
37710;BME280;60223;34.854;-92.408;2023-05-03T06:14:49;100402.30;;;24.73;24.89
37710;BME280;60223;34.854;-92.408;2023-05-03T06:17:14;100402.65;;;24.70;24.93
37710;BME280;60223;34.854;-92.408;2023-05-03T06:19:38;100400.59;;;24.73;24.95
37710;BME280;60223;34.854;-92.408;2023-05-03T06:22:04;100404.32;;;24.62;24.97
37710;BME280;60223;34.854;-92.408;2023-05-03T06:24:31;100400.56;;;24.91;25.00
37710;BME280;60223;34.854;-92.408;2023-05-03T06:26:57;100402.11;;;24.58;25.11
37710;BME280;60223;34.854;-92.408;2023-05-03T06:29:21;100404.28;;;24.35;25.02
37710;BME280;60223;34.854;-92.408;2023-05-03T06:31:48;100408.76;;;24.97;24.98
37710;BME280;60223;34.854;-92.408;2023-05-03T06:34:14;100410.13;;;24.79;25.15
37710;BME280;60223;34.854;-92.408;2023-05-03T06:36:39;100410.80;;;24.69;25.04
37710;BME280;60223;34.854;-92.408;2023-05-03T06:39:03;100411.62;;;24.67;25.07
37710;BME280;60223;34.854;-92.408;2023-05-03T06:41:31;100413.76;;;25.06;24.94
37710;BME280;60223;34.854;-92.408;2023-05-03T06:43:56;100411.01;;;24.27;25.21
37710;BME280;60223;34.854;-92.408;2023-05-03T06:46:22;100415.32;;;24.66;25.04
37710;BME280;60223;34.854;-92.408;2023-05-03T06:48:46;100420.77;;;24.58;25.33
37710;BME280;60223;34.854;-92.408;2023-05-03T06:51:13;100420.20;;;25.04;24.93
37710;BME280;60223;34.854;-92.408;2023-05-03T06:53:39;100420.23;;;24.72;25.23
37710;BME280;60223;34.854;-92.408;2023-05-03T06:56:04;100419.90;;;24.90;25.08
37710;BME280;60223;34.854;-92.408;2023-05-03T06:58:30;100417.41;;;24.73;25.24
37710;BME280;60223;34.854;-92.408;2023-05-03T07:00:55;100418.00;;;24.60;25.36
37710;BME280;60223;34.854;-92.408;2023-05-03T07:03:22;100413.38;;;24.50;25.22
37710;BME280;60223;34.854;-92.408;2023-05-03T07:05:47;100417.43;;;24.65;25.29
37710;BME280;60223;34.854;-92.408;2023-05-03T07:08:12;100420.45;;;24.58;25.28
37710;BME280;60223;34.854;-92.408;2023-05-03T07:10:37;100421.63;;;24.50;25.31
37710;BME280;60223;34.854;-92.408;2023-05-03T07:13:04;100420.57;;;24.24;25.33
37710;BME280;60223;34.854;-92.408;2023-05-03T07:15:30;100419.24;;;24.08;25.44
37710;BME280;60223;34.854;-92.408;2023-05-03T07:17:55;100419.12;;;24.48;25.26
37710;BME280;60223;34.854;-92.408;2023-05-03T07:20:19;100416.79;;;24.18;25.33
37710;BME280;60223;34.854;-92.408;2023-05-03T07:22:46;100413.84;;;24.22;25.30
37710;BME280;60223;34.854;-92.408;2023-05-03T07:25:12;100413.93;;;24.51;25.20
37710;BME280;60223;34.854;-92.408;2023-05-03T07:27:38;100415.83;;;24.49;25.31
37710;BME280;60223;34.854;-92.408;2023-05-03T07:30:03;100416.14;;;24.43;25.26
37710;BME280;60223;34.854;-92.408;2023-05-03T07:32:30;100418.12;;;24.32;25.39
37710;BME280;60223;34.854;-92.408;2023-05-03T07:34:55;100418.42;;;24.35;25.39
37710;BME280;60223;34.854;-92.408;2023-05-03T07:37:19;100413.97;;;24.27;25.47
37710;BME280;60223;34.854;-92.408;2023-05-03T07:39:46;100413.44;;;24.24;25.50
37710;BME280;60223;34.854;-92.408;2023-05-03T07:42:11;100413.77;;;24.37;25.35
37710;BME280;60223;34.854;-92.408;2023-05-03T07:44:37;100409.10;;;24.33;25.37
37710;BME280;60223;34.854;-92.408;2023-05-03T07:47:01;100405.90;;;24.32;25.41
37710;BME280;60223;34.854;-92.408;2023-05-03T07:49:29;100404.56;;;24.35;25.39
37710;BME280;60223;34.854;-92.408;2023-05-03T07:51:54;100401.14;;;24.20;25.49
37710;BME280;60223;34.854;-92.408;2023-05-03T07:54:20;100398.77;;;24.45;25.51
37710;BME280;60223;34.854;-92.408;2023-05-03T07:56:46;100392.42;;;24.44;25.31
37710;BME280;60223;34.854;-92.408;2023-05-03T07:59:10;100396.06;;;24.17;25.55
37710;BME280;60223;34.854;-92.408;2023-05-03T08:01:37;100396.45;;;24.18;25.53
37710;BME280;60223;34.854;-92.408;2023-05-03T08:04:03;100396.03;;;24.21;25.48
37710;BME280;60223;34.854;-92.408;2023-05-03T08:06:28;100393.90;;;24.08;25.60
37710;BME280;60223;34.854;-92.408;2023-05-03T08:08:53;100392.29;;;24.02;25.62
37710;BME280;60223;34.854;-92.408;2023-05-03T08:11:20;100393.68;;;24.09;25.57
37710;BME280;60223;34.854;-92.408;2023-05-03T08:13:45;100394.51;;;24.10;25.57
37710;BME280;60223;34.854;-92.408;2023-05-03T08:16:12;100393.93;;;24.03;25.58
37710;BME280;60223;34.854;-92.408;2023-05-03T08:18:37;100394.90;;;24.16;25.49
37710;BME280;60223;34.854;-92.408;2023-05-03T08:21:01;100397.83;;;24.11;25.50
37710;BME280;60223;34.854;-92.408;2023-05-03T08:23:28;100401.17;;;24.09;25.52
37710;BME280;60223;34.854;-92.408;2023-05-03T08:25:54;100400.15;;;24.02;25.56
37710;BME280;60223;34.854;-92.408;2023-05-03T08:28:19;100404.10;;;24.05;25.54
37710;BME280;60223;34.854;-92.408;2023-05-03T08:30:45;100405.88;;;24.01;25.56
37710;BME280;60223;34.854;-92.408;2023-05-03T08:33:09;100405.85;;;23.93;25.62
37710;BME280;60223;34.854;-92.408;2023-05-03T08:35:36;100405.45;;;24.05;25.51
37710;BME280;60223;34.854;-92.408;2023-05-03T08:38:02;100407.75;;;24.07;25.50
37710;BME280;60223;34.854;-92.408;2023-05-03T08:40:30;100410.26;;;23.94;25.60
37710;BME280;60223;34.854;-92.408;2023-05-03T08:42:54;100413.90;;;24.03;25.50
37710;BME280;60223;34.854;-92.408;2023-05-03T08:45:19;100413.66;;;24.21;25.56
37710;BME280;60223;34.854;-92.408;2023-05-03T08:47:45;100416.08;;;24.66;25.38
37710;BME280;60223;34.854;-92.408;2023-05-03T08:50:12;100415.04;;;23.93;25.59
37710;BME280;60223;34.854;-92.408;2023-05-03T08:52:37;100414.97;;;23.96;25.54
37710;BME280;60223;34.854;-92.408;2023-05-03T08:55:01;100420.70;;;23.95;25.53
37710;BME280;60223;34.854;-92.408;2023-05-03T08:57:27;100423.87;;;23.84;25.57
37710;BME280;60223;34.854;-92.408;2023-05-03T08:59:54;100422.08;;;24.00;25.62
37710;BME280;60223;34.854;-92.408;2023-05-03T09:02:19;100421.89;;;23.74;25.63
37710;BME280;60223;34.854;-92.408;2023-05-03T09:04:45;100423.69;;;24.20;25.59
37710;BME280;60223;34.854;-92.408;2023-05-03T09:07:11;100429.34;;;23.67;25.63
37710;BME280;60223;34.854;-92.408;2023-05-03T09:09:35;100426.21;;;24.27;25.48
37710;BME280;60223;34.854;-92.408;2023-05-03T09:12:01;100426.62;;;23.79;25.47
37710;BME280;60223;34.854;-92.408;2023-05-03T09:14:27;100427.86;;;24.26;25.47
37710;BME280;60223;34.854;-92.408;2023-05-03T09:16:52;100429.76;;;23.94;25.31
37710;BME280;60223;34.854;-92.408;2023-05-03T09:19:18;100429.17;;;23.90;25.32
37710;BME280;60223;34.854;-92.408;2023-05-03T09:21:44;100428.15;;;23.82;25.39
37710;BME280;60223;34.854;-92.408;2023-05-03T09:24:14;100430.00;;;23.75;25.44
37710;BME280;60223;34.854;-92.408;2023-05-03T09:26:35;100438.17;;;23.86;25.53
37710;BME280;60223;34.854;-92.408;2023-05-03T09:29:02;100439.22;;;23.92;25.47
37710;BME280;60223;34.854;-92.408;2023-05-03T09:31:27;100439.65;;;24.03;25.35
37710;BME280;60223;34.854;-92.408;2023-05-03T09:33:52;100442.02;;;23.62;25.50
37710;BME280;60223;34.854;-92.408;2023-05-03T09:36:16;100442.40;;;23.73;25.39
37710;BME280;60223;34.854;-92.408;2023-05-03T09:38:43;100445.24;;;24.01;25.32
37710;BME280;60223;34.854;-92.408;2023-05-03T09:41:09;100446.80;;;24.29;25.28
37710;BME280;60223;34.854;-92.408;2023-05-03T09:43:35;100449.04;;;23.81;25.25
37710;BME280;60223;34.854;-92.408;2023-05-03T09:46:07;100447.47;;;23.92;25.35
37710;BME280;60223;34.854;-92.408;2023-05-03T09:48:28;100443.58;;;23.88;25.36
37710;BME280;60223;34.854;-92.408;2023-05-03T09:50:51;100440.48;;;23.93;25.33
37710;BME280;60223;34.854;-92.408;2023-05-03T09:53:17;100441.07;;;23.64;25.35
37710;BME280;60223;34.854;-92.408;2023-05-03T09:55:43;100447.45;;;23.90;25.30
37710;BME280;60223;34.854;-92.408;2023-05-03T09:58:09;100446.91;;;23.89;25.30
37710;BME280;60223;34.854;-92.408;2023-05-03T10:00:37;100447.52;;;23.62;25.26
37710;BME280;60223;34.854;-92.408;2023-05-03T10:03:07;100443.86;;;23.71;25.18
37710;BME280;60223;34.854;-92.408;2023-05-03T10:05:26;100442.52;;;23.98;25.12
37710;BME280;60223;34.854;-92.408;2023-05-03T10:07:51;100442.12;;;23.46;25.34
37710;BME280;60223;34.854;-92.408;2023-05-03T10:10:17;100444.45;;;23.87;25.17
37710;BME280;60223;34.854;-92.408;2023-05-03T10:12:41;100448.16;;;23.69;25.13
37710;BME280;60223;34.854;-92.408;2023-05-03T10:15:10;100451.04;;;24.05;25.20
37710;BME280;60223;34.854;-92.408;2023-05-03T10:17:35;100454.50;;;23.73;25.22
37710;BME280;60223;34.854;-92.408;2023-05-03T10:20:08;100459.83;;;23.72;25.22
37710;BME280;60223;34.854;-92.408;2023-05-03T10:22:25;100463.31;;;23.62;25.30
37710;BME280;60223;34.854;-92.408;2023-05-03T10:25:06;100464.16;;;23.91;25.05
37710;BME280;60223;34.854;-92.408;2023-05-03T10:27:16;100463.76;;;23.93;25.22
37710;BME280;60223;34.854;-92.408;2023-05-03T10:29:49;100467.02;;;23.56;25.12
37710;BME280;60223;34.854;-92.408;2023-05-03T10:34:34;100466.88;;;23.31;25.31
37710;BME280;60223;34.854;-92.408;2023-05-03T10:37:00;100465.55;;;23.54;25.13
37710;BME280;60223;34.854;-92.408;2023-05-03T10:39:25;100468.55;;;23.89;25.21
37710;BME280;60223;34.854;-92.408;2023-05-03T10:41:57;100473.87;;;23.84;25.04
37710;BME280;60223;34.854;-92.408;2023-05-03T10:46:42;100475.78;;;23.40;25.20
37710;BME280;60223;34.854;-92.408;2023-05-03T10:49:17;100477.71;;;23.75;25.08
37710;BME280;60223;34.854;-92.408;2023-05-03T10:51:34;100474.76;;;23.87;25.15
37710;BME280;60223;34.854;-92.408;2023-05-03T10:53:59;100476.11;;;23.77;25.05
37710;BME280;60223;34.854;-92.408;2023-05-03T10:56:24;100476.04;;;23.87;25.14
37710;BME280;60223;34.854;-92.408;2023-05-03T10:58:51;100484.68;;;23.64;25.10
37710;BME280;60223;34.854;-92.408;2023-05-03T11:01:17;100488.31;;;23.79;25.16
37710;BME280;60223;34.854;-92.408;2023-05-03T11:03:48;100494.08;;;23.97;24.97
37710;BME280;60223;34.854;-92.408;2023-05-03T11:06:06;100492.54;;;23.36;25.08
37710;BME280;60223;34.854;-92.408;2023-05-03T11:08:33;100493.88;;;23.95;24.95
37710;BME280;60223;34.854;-92.408;2023-05-03T11:11:00;100498.26;;;23.85;25.03
37710;BME280;60223;34.854;-92.408;2023-05-03T11:13:24;100506.03;;;23.53;24.88
37710;BME280;60223;34.854;-92.408;2023-05-03T11:15:50;100512.36;;;24.00;24.90
37710;BME280;60223;34.854;-92.408;2023-05-03T11:18:14;100513.71;;;23.80;25.02
37710;BME280;60223;34.854;-92.408;2023-05-03T11:20:41;100515.55;;;23.33;25.01
37710;BME280;60223;34.854;-92.408;2023-05-03T11:23:07;100515.70;;;23.66;25.18
37710;BME280;60223;34.854;-92.408;2023-05-03T11:25:33;100518.49;;;23.78;25.03
37710;BME280;60223;34.854;-92.408;2023-05-03T11:27:57;100522.43;;;23.48;25.06
37710;BME280;60223;34.854;-92.408;2023-05-03T11:30:24;100524.68;;;23.33;24.96
37710;BME280;60223;34.854;-92.408;2023-05-03T11:32:50;100525.17;;;23.15;25.16
37710;BME280;60223;34.854;-92.408;2023-05-03T11:35:16;100522.54;;;23.38;25.15
37710;BME280;60223;34.854;-92.408;2023-05-03T11:37:40;100526.70;;;23.57;24.94
37710;BME280;60223;34.854;-92.408;2023-05-03T11:40:12;100537.42;;;23.98;24.81
37710;BME280;60223;34.854;-92.408;2023-05-03T11:42:31;100542.39;;;23.29;25.19
37710;BME280;60223;34.854;-92.408;2023-05-03T11:44:57;100550.98;;;23.60;25.10
37710;BME280;60223;34.854;-92.408;2023-05-03T11:47:23;100557.37;;;23.45;24.99
37710;BME280;60223;34.854;-92.408;2023-05-03T11:49:55;100557.55;;;23.65;25.01
37710;BME280;60223;34.854;-92.408;2023-05-03T11:52:13;100559.50;;;23.78;24.92
37710;BME280;60223;34.854;-92.408;2023-05-03T11:54:39;100563.34;;;23.56;24.86
37710;BME280;60223;34.854;-92.408;2023-05-03T11:57:12;100571.48;;;23.66;25.00
37710;BME280;60223;34.854;-92.408;2023-05-03T11:59:38;100579.15;;;23.54;25.08
37710;BME280;60223;34.854;-92.408;2023-05-03T12:01:59;100583.38;;;23.49;25.13
37710;BME280;60223;34.854;-92.408;2023-05-03T12:04:24;100587.72;;;23.53;25.05
37710;BME280;60223;34.854;-92.408;2023-05-03T12:06:46;100596.09;;;23.63;24.98
37710;BME280;60223;34.854;-92.408;2023-05-03T12:09:16;100603.86;;;23.70;24.89
37710;BME280;60223;34.854;-92.408;2023-05-03T12:11:43;100614.60;;;23.32;25.01
37710;BME280;60223;34.854;-92.408;2023-05-03T12:14:06;100617.84;;;23.55;25.03
37710;BME280;60223;34.854;-92.408;2023-05-03T12:16:46;100619.80;;;23.11;25.28
37710;BME280;60223;34.854;-92.408;2023-05-03T12:18:57;100620.48;;;23.33;25.32
37710;BME280;60223;34.854;-92.408;2023-05-03T12:21:43;100624.51;;;24.28;24.48
37710;BME280;60223;34.854;-92.408;2023-05-03T12:23:49;100629.01;;;24.73;24.27
37710;BME280;60223;34.854;-92.408;2023-05-03T12:26:15;100632.50;;;24.18;24.87